Time;durP1;ratioP1;P1;durP2;ratioP2;P2;SDS_P1;SDS_P2;PMS_P1;PMS_P2;Temp;Humidity;BMP_temperature;BMP_pressure;BME280_temperature;BME280_humidity;BME280_pressure;Samples;Min_cycle;Max_cycle;Signal;HPM_P1;HPM_P2
2022/10/04 00:01:51;;;;;;;0.50;0.50;;;;;;;9.34;69.99;100776.31;5048476;28;20029;-68
2022/10/04 00:04:56;;;;;;;0.40;0.40;;;;;;;9.31;70.33;100792.72;5048184;28;20036;-68
2022/10/04 00:07:50;;;;;;;0.50;0.50;;;;;;;9.18;70.46;100779.69;5046874;28;20048;-68
2022/10/04 00:10:22;;;;;;;0.50;0.50;;;;;;;9.14;70.52;100774.50;5048378;28;20018;-68
2022/10/04 00:13:04;;;;;;;0.50;0.50;;;;;;;9.08;70.25;100766.72;5048073;28;20025;-68
2022/10/04 00:15:32;;;;;;;;;;;;;;;9.07;70.26;100770.19;5048544;28;20044;-68
2022/10/04 00:18:09;;;;;;;0.40;0.40;;;;;;;9.01;69.99;100765.84;5048114;28;19909;-68
2022/10/04 00:20:49;;;;;;;0.50;0.50;;;;;;;9.00;70.32;100771.88;5047852;28;20030;-68
2022/10/04 00:23:24;;;;;;;0.50;0.50;;;;;;;9.00;70.17;100769.28;5047836;28;20033;-68
2022/10/04 00:25:49;;;;;;;0.50;0.50;;;;;;;9.03;70.28;100766.69;5048084;28;20085;-69
2022/10/04 00:28:15;;;;;;;0.50;0.50;;;;;;;9.06;70.09;100771.88;5047896;28;20022;-67
2022/10/04 00:30:40;;;;;;;0.50;0.50;;;;;;;9.10;70.34;100768.47;5048294;28;20021;-69
2022/10/04 00:33:06;;;;;;;0.40;0.40;;;;;;;9.14;70.40;100762.44;5047636;28;20021;-68
2022/10/04 00:35:31;;;;;;;0.50;0.50;;;;;;;9.17;70.19;100769.34;5046053;28;20029;-68
2022/10/04 00:38:12;;;;;;;0.50;0.50;;;;;;;9.25;70.51;100769.38;5047370;28;20040;-68
2022/10/04 00:40:45;;;;;;;0.50;0.50;;;;;;;9.31;70.69;100759.03;5047786;28;20029;-68
2022/10/04 00:43:36;;;;;;;0.45;0.45;;;;;;;9.41;71.22;100754.72;5047638;28;20029;-68
2022/10/04 00:46:06;;;;;;;0.50;0.50;;;;;;;9.49;72.87;100759.94;5046526;28;20540;-68
2022/10/04 00:48:46;;;;;;;0.50;0.50;;;;;;;9.59;72.64;100759.06;5047631;28;20021;-68
2022/10/04 00:51:17;;;;;;;0.40;0.40;;;;;;;9.61;73.57;100759.06;5047416;28;20030;-68
2022/10/04 00:54:02;;;;;;;0.50;0.50;;;;;;;9.63;73.48;100754.78;5046323;28;20021;-69
2022/10/04 00:56:50;;;;;;;0.40;0.40;;;;;;;9.72;73.86;100749.59;5047484;28;20092;-68
2022/10/04 00:59:27;;;;;;;0.50;0.50;;;;;;;9.93;73.50;100755.66;5062289;28;20021;-68
2022/10/04 01:02:15;;;;;;;0.40;0.40;;;;;;;10.06;73.46;100764.28;5047125;28;20026;-68
2022/10/04 01:04:50;;;;;;;0.40;0.40;;;;;;;10.14;73.67;100756.50;5046852;28;20109;-69
2022/10/04 01:07:22;;;;;;;0.85;0.85;;;;;;;10.20;74.21;100748.72;5047067;28;20021;-70
2022/10/04 01:09:54;;;;;;;0.50;0.50;;;;;;;10.26;73.99;100753.00;5047509;28;20048;-70
2022/10/04 01:12:35;;;;;;;0.50;0.50;;;;;;;10.30;73.94;100744.38;5046914;28;20029;-69
2022/10/04 01:15:10;;;;;;;0.73;0.73;;;;;;;10.36;74.48;100746.09;5047215;28;20496;-70
2022/10/04 01:17:36;;;;;;;0.50;0.50;;;;;;;10.37;74.28;100740.88;5047158;28;20033;-69
2022/10/04 01:20:01;;;;;;;0.40;0.40;;;;;;;10.39;74.26;100739.16;5046850;28;20026;-68
2022/10/04 01:22:42;;;;;;;0.40;0.40;;;;;;;10.45;75.06;100759.03;5046149;28;20080;-67
2022/10/04 01:25:08;;;;;;;0.40;0.40;;;;;;;10.48;74.82;100759.06;5046818;28;20163;-67
2022/10/04 01:27:42;;;;;;;0.40;0.40;;;;;;;10.50;74.64;100754.72;5046689;28;20029;-69
2022/10/04 01:30:12;;;;;;;0.50;0.50;;;;;;;10.52;74.61;100759.91;5046701;28;20029;-69
2022/10/04 01:32:38;;;;;;;0.50;0.50;;;;;;;10.48;74.58;100743.47;5046407;28;20072;-69
2022/10/04 01:35:07;;;;;;;0.40;0.40;;;;;;;10.57;74.37;100755.59;5045378;28;20089;-68
2022/10/04 01:37:32;;;;;;;0.40;0.40;;;;;;;10.54;74.09;100755.59;5046477;28;20040;-68
2022/10/04 01:39:58;;;;;;;0.40;0.40;;;;;;;10.47;73.78;100751.28;5046455;28;20088;-67
2022/10/04 01:42:35;;;;;;;0.40;0.40;;;;;;;10.41;73.88;100747.78;5046541;28;20017;-69
2022/10/04 01:45:04;;;;;;;0.40;0.40;;;;;;;10.38;73.79;100747.78;5045503;28;20052;-68
2022/10/04 01:47:39;;;;;;;0.40;0.40;;;;;;;10.33;74.00;100746.97;5046330;28;20269;-67
2022/10/04 01:50:10;;;;;;;0.40;0.40;;;;;;;10.31;73.96;100746.09;5046466;28;20044;-67
2022/10/04 01:52:44;;;;;;;0.50;0.50;;;;;;;10.22;73.99;100741.78;5046011;28;20075;-68
2022/10/04 01:55:17;;;;;;;0.50;0.50;;;;;;;10.21;74.28;100750.44;5046527;28;20025;-68
2022/10/04 01:57:49;;;;;;;0.40;0.40;;;;;;;10.16;74.13;100747.84;5046270;28;20025;-67
2022/10/04 02:00:16;;;;;;;0.50;0.50;;;;;;;10.14;74.08;100741.78;5046105;28;20481;-67
2022/10/04 02:02:56;;;;;;;0.40;0.40;;;;;;;10.15;74.22;100743.53;5044720;28;20036;-68
2022/10/04 02:05:33;;;;;;;0.47;0.47;;;;;;;10.14;73.97;100733.16;5046251;28;20029;-68
2022/10/04 02:08:08;;;;;;;0.40;0.40;;;;;;;10.14;73.98;100739.19;5046023;28;20462;-68
2022/10/04 02:10:35;;;;;;;0.45;0.45;;;;;;;10.06;73.70;100729.69;5045235;28;20028;-68
2022/10/04 02:13:07;;;;;;;0.40;0.40;;;;;;;9.97;73.32;100734.03;5045984;28;20026;-68
2022/10/04 02:15:38;;;;;;;0.57;0.57;;;;;;;9.84;73.36;100724.53;5046093;28;20028;-68
2022/10/04 02:18:12;;;;;;;0.50;0.50;;;;;;;9.71;73.85;100711.56;5045976;28;20493;-68
2022/10/04 02:20:39;;;;;;;0.50;0.50;;;;;;;9.77;74.59;100721.06;5044612;28;20064;-68
2022/10/04 02:23:05;;;;;;;0.50;0.50;;;;;;;9.82;75.01;100719.34;5045700;28;20022;-68
2022/10/04 02:25:30;;;;;;;0.50;0.50;;;;;;;9.90;74.94;100716.75;5045589;28;20048;-68
2022/10/04 02:27:56;;;;;;;0.40;0.40;;;;;;;10.02;75.47;100716.72;5045618;28;20033;-67
2022/10/04 02:30:23;;;;;;;0.40;0.40;;;;;;;10.11;75.55;100715.00;5045376;28;20029;-67
2022/10/04 02:32:59;;;;;;;0.40;0.40;;;;;;;10.20;75.93;100716.69;5045667;28;20033;-68
2022/10/04 02:35:35;;;;;;;13.95;2.17;;;;;;;10.28;76.41;100712.38;5045716;28;20025;-68
2022/10/04 02:38:12;;;;;;;0.40;0.40;;;;;;;10.39;77.67;100710.59;5045482;28;20055;-68
2022/10/04 02:41:05;;;;;;;0.40;0.40;;;;;;;10.49;78.44;100702.81;5045601;28;20044;-68
2022/10/04 02:43:52;;;;;;;0.50;0.50;;;;;;;10.65;78.58;100699.28;5045349;28;20362;-68
2022/10/04 02:46:23;;;;;;;0.40;0.40;;;;;;;10.74;78.25;100700.13;5045033;28;20115;-68
2022/10/04 02:48:57;;;;;;;0.50;0.50;;;;;;;10.81;77.73;100696.66;5044456;28;20017;-67
2022/10/04 02:51:30;;;;;;;0.40;0.40;;;;;;;10.86;76.64;100691.44;5045650;28;20049;-68
2022/10/04 02:54:03;;;;;;;0.40;0.40;;;;;;;10.93;76.48;100697.47;5045233;28;20029;-69
2022/10/04 02:56:29;;;;;;;0.40;0.40;;;;;;;10.86;76.48;100696.63;5045404;28;20077;-69
2022/10/04 02:59:00;;;;;;;0.50;0.50;;;;;;;10.81;76.34;100691.44;5045204;28;20048;-68
2022/10/04 03:01:35;;;;;;;1.75;1.65;;;;;;;10.72;76.77;100694.09;5045460;28;20021;-69
2022/10/04 03:04:01;;;;;;;0.40;0.40;;;;;;;10.61;77.08;100697.59;5045253;28;20030;-69
2022/10/04 03:06:31;;;;;;;0.40;0.40;;;;;;;10.52;76.64;100690.72;5045171;28;20026;-69
2022/10/04 03:09:00;;;;;;;0.50;0.50;;;;;;;10.53;76.65;100699.34;5045310;28;20053;-68
2022/10/04 03:11:30;;;;;;;0.50;0.50;;;;;;;10.51;76.64;100691.56;5044540;28;20136;-68
2022/10/04 03:13:59;;;;;;;0.40;0.40;;;;;;;10.45;77.08;100712.31;5060528;28;20393;-69
2022/10/04 03:16:25;;;;;;;0.40;0.40;;;;;;;10.45;76.80;100711.47;5044410;28;20025;-69
2022/10/04 03:18:55;;;;;;;1.25;1.25;;;;;;;10.41;76.71;100702.81;5045251;28;20242;-69
2022/10/04 03:21:23;;;;;;;0.47;0.47;;;;;;;10.38;76.83;100701.06;5046710;28;20056;-69
2022/10/04 03:23:51;;;;;;;0.40;0.40;;;;;;;10.36;77.02;100702.84;5048781;28;20089;-68
2022/10/04 03:26:35;;;;;;;0.40;0.40;;;;;;;10.33;77.05;100697.66;5049084;28;20041;-68
2022/10/04 03:29:01;;;;;;;0.40;0.40;;;;;;;10.25;76.93;100695.09;5049254;28;20018;-68
2022/10/04 03:31:28;;;;;;;0.43;0.43;;;;;;;10.16;77.07;100689.88;5049108;28;20025;-69
2022/10/04 03:33:55;;;;;;;0.50;0.50;;;;;;;10.09;77.24;100683.00;5048832;28;20325;-68
2022/10/04 03:36:23;;;;;;;0.50;0.50;;;;;;;10.01;77.60;100683.88;5048778;28;20516;-68
2022/10/04 03:38:52;;;;;;;0.45;0.45;;;;;;;9.97;77.56;100686.50;5048836;28;20032;-68
2022/10/04 03:41:18;;;;;;;0.43;0.43;;;;;;;9.91;78.10;100688.22;5047666;28;20044;-69
2022/10/04 03:43:49;;;;;;;0.50;0.50;;;;;;;9.98;78.04;100691.69;5047490;28;20021;-68
2022/10/04 03:46:17;;;;;;;0.40;0.40;;;;;;;10.04;77.84;100680.41;5048830;28;20018;-68
2022/10/04 03:48:49;;;;;;;0.50;0.50;;;;;;;10.13;77.92;100688.16;5048750;28;20084;-67
2022/10/04 03:51:25;;;;;;;0.50;0.50;;;;;;;10.23;78.18;100681.25;5048647;28;20025;-67
2022/10/04 03:53:56;;;;;;;0.40;0.40;;;;;;;10.29;77.92;100663.06;5048374;28;20088;-68
2022/10/04 03:56:26;;;;;;;0.50;0.50;;;;;;;10.45;78.09;100678.56;5048416;28;20029;-68
2022/10/04 03:58:52;;;;;;;0.40;0.40;;;;;;;10.49;78.11;100671.69;5048654;28;20461;-67
2022/10/04 04:01:36;;;;;;;0.43;0.43;;;;;;;10.58;78.10;100670.75;5048270;28;20051;-70
2022/10/04 04:04:21;;;;;;;0.45;0.45;;;;;;;10.65;78.27;100673.31;5048436;28;20022;-69
2022/10/04 04:06:50;;;;;;;0.40;0.40;;;;;;;10.72;78.21;100660.34;5048456;28;20021;-68
2022/10/04 04:09:24;;;;;;;0.50;0.50;;;;;;;10.72;78.52;100663.78;5048425;28;20036;-68
2022/10/04 04:11:54;;;;;;;0.40;0.40;;;;;;;10.69;78.51;100648.22;5048215;28;20026;-68
2022/10/04 04:14:26;;;;;;;0.50;0.50;;;;;;;10.69;78.49;100662.94;5048097;28;20075;-68
2022/10/04 04:16:53;;;;;;;0.40;0.40;;;;;;;10.64;78.12;100656.03;5048258;28;20022;-69
2022/10/04 04:19:23;;;;;;;0.50;0.50;;;;;;;10.52;78.43;100654.38;5048323;28;20045;-69
2022/10/04 04:21:51;;;;;;;0.50;0.50;;;;;;;10.49;78.36;100664.75;5030094;28;20041;-68
2022/10/04 04:24:27;;;;;;;0.40;0.40;;;;;;;10.41;78.32;100658.69;5048084;28;20022;-68
2022/10/04 04:27:00;;;;;;;0.40;0.40;;;;;;;10.40;78.46;100655.22;5046574;28;20032;-67
2022/10/04 04:29:30;;;;;;;0.50;0.50;;;;;;;10.36;78.75;100650.94;5048175;28;20049;-68
2022/10/04 04:32:17;;;;;;;0.70;0.70;;;;;;;10.29;78.96;100644.00;5046993;28;20025;-67
2022/10/04 04:34:59;;;;;;;0.40;0.40;;;;;;;10.21;79.11;100649.22;5047931;28;20539;-68
2022/10/04 04:37:25;;;;;;;;;;;;;;;10.14;78.93;100650.13;5048030;28;20033;-67
2022/10/04 04:39:54;;;;;;;0.40;0.40;;;;;;;9.95;79.23;100657.97;5047875;28;19916;-66
2022/10/04 04:42:27;;;;;;;0.45;0.45;;;;;;;9.74;79.19;100656.25;5047638;28;20018;-70
2022/10/04 04:44:59;;;;;;;0.85;0.82;;;;;;;9.71;78.95;100661.44;5047599;28;20081;-69
2022/10/04 04:47:39;;;;;;;0.50;0.50;;;;;;;9.67;79.40;100663.16;5047529;28;20044;-64
2022/10/04 04:50:11;;;;;;;0.40;0.40;;;;;;;9.66;79.91;100664.88;5047690;28;20470;-70
2022/10/04 04:52:37;;;;;;;0.40;0.40;;;;;;;9.72;79.87;100660.56;5047155;28;20040;-73
2022/10/04 04:55:05;;;;;;;0.40;0.40;;;;;;;9.78;80.31;100663.16;5047545;28;20025;-72
2022/10/04 04:57:32;;;;;;;0.40;0.40;;;;;;;9.88;80.21;100664.00;5047843;28;20037;-72
2022/10/04 05:00:00;;;;;;;0.60;0.60;;;;;;;9.92;79.98;100640.66;5047396;28;20021;-69
2022/10/04 05:02:33;;;;;;;0.50;0.50;;;;;;;10.06;80.15;100657.94;5047496;28;20073;-70
2022/10/04 05:05:21;;;;;;;0.40;0.40;;;;;;;10.14;80.19;100648.38;5047350;28;20029;-73
2022/10/04 05:07:47;;;;;;;0.40;0.40;;;;;;;10.21;79.92;100645.78;5047623;28;20095;-69
2022/10/04 05:10:33;;;;;;;0.40;0.40;;;;;;;10.28;79.83;100639.69;5047678;28;20053;-68
2022/10/04 05:13:07;;;;;;;0.50;0.50;;;;;;;10.32;79.80;100636.22;5047344;28;20030;-69
2022/10/04 05:15:35;;;;;;;0.40;0.40;;;;;;;10.32;79.61;100638.81;5047334;28;20036;-70
2022/10/04 05:18:31;;;;;;;0.50;0.50;;;;;;;10.33;79.85;100635.38;5047210;28;20484;-68
2022/10/04 05:21:04;;;;;;;0.40;0.40;;;;;;;10.34;80.11;100637.09;5046908;28;20064;-71
2022/10/04 05:23:29;;;;;;;0.40;0.40;;;;;;;10.39;80.25;100632.75;5046879;28;20036;-70
2022/10/04 05:25:55;;;;;;;0.40;0.40;;;;;;;10.45;80.32;100634.44;5045916;28;20018;-70
2022/10/04 05:28:20;;;;;;;0.40;0.40;;;;;;;10.49;80.01;100635.34;5046886;28;20034;-68
2022/10/04 05:31:21;;;;;;;0.40;0.40;;;;;;;10.47;79.79;100630.16;5046968;28;20021;-69
2022/10/04 05:33:49;;;;;;;0.40;0.40;;;;;;;10.47;80.40;100631.88;5023964;28;20141;-69
2022/10/04 05:36:53;;;;;;;0.50;0.50;;;;;;;10.51;80.27;100631.00;5023197;28;20075;-69
2022/10/04 05:39:23;;;;;;;0.40;0.40;;;;;;;10.55;80.80;100632.72;5007854;28;20057;-69
2022/10/04 05:42:11;;;;;;;0.40;0.40;;;;;;;10.59;80.62;100637.00;5022966;28;20085;-70
2022/10/04 05:44:47;;;;;;;1.13;1.13;;;;;;;10.63;80.33;100623.16;5022692;28;20034;-70
2022/10/04 05:47:14;;;;;;;0.45;0.45;;;;;;;10.65;80.31;100618.78;5023232;28;20037;-69
2022/10/04 05:49:42;;;;;;;0.40;0.40;;;;;;;10.73;80.75;100625.69;5023141;28;20041;-70
2022/10/04 05:52:26;;;;;;;0.40;0.40;;;;;;;10.72;80.61;100616.19;5022975;28;20026;-70
2022/10/04 05:55:27;;;;;;;0.40;0.40;;;;;;;10.84;80.64;100616.13;5023162;28;20052;-72
2022/10/04 05:58:17;;;;;;;0.40;0.40;;;;;;;10.92;80.96;100618.66;5022967;28;20084;-69
2022/10/04 06:01:20;;;;;;;0.40;0.40;;;;;;;11.00;81.13;100621.19;5023092;28;20018;-68
2022/10/04 06:04:19;;;;;;;0.40;0.40;;;;;;;11.09;80.63;100620.25;5005698;28;20120;-68
2022/10/04 06:07:11;;;;;;;0.73;0.73;;;;;;;11.14;80.59;100621.09;5006836;28;20029;-67
2022/10/04 06:09:45;;;;;;;0.40;0.40;;;;;;;11.19;80.37;100615.88;5021340;28;20048;-67
2022/10/04 06:12:17;;;;;;;0.43;0.43;;;;;;;11.17;80.24;100607.25;5063670;28;20066;-67
2022/10/04 06:14:58;;;;;;;0.40;0.40;;;;;;;11.22;80.31;100611.50;5064868;28;20043;-68
2022/10/04 06:18:01;;;;;;;0.40;0.40;;;;;;;11.25;80.45;100610.63;5064993;28;20304;-67
2022/10/04 06:21:13;;;;;;;0.40;0.40;;;;;;;11.33;80.57;100614.03;5065080;28;20099;-67
2022/10/04 06:23:54;;;;;;;0.40;0.40;;;;;;;11.39;80.56;100607.91;5058289;28;20108;-66
2022/10/04 06:26:24;;;;;;;0.60;0.60;;;;;;;11.46;80.70;100604.38;5064791;28;20027;-67
2022/10/04 06:29:11;;;;;;;0.40;0.40;;;;;;;11.51;81.40;100612.16;5064779;28;20084;-67
2022/10/04 06:31:45;;;;;;;39.75;3.13;;;;;;;11.61;81.26;100603.38;5065166;28;20025;-68
2022/10/04 06:34:35;;;;;;;0.60;0.60;;;;;;;11.72;81.75;100605.88;5064572;28;20031;-66
2022/10/04 06:37:30;;;;;;;0.40;0.40;;;;;;;11.87;81.44;100615.25;5064486;28;20494;-66
2022/10/04 06:40:08;;;;;;;0.40;0.40;;;;;;;11.87;81.36;100594.44;5064367;28;20189;-68
2022/10/04 06:42:43;;;;;;;0.68;0.68;;;;;;;12.02;81.25;100614.25;5063038;28;20023;-68
2022/10/04 06:45:30;;;;;;;1.15;1.15;;;;;;;12.01;80.69;100614.25;5064561;28;20155;-69
2022/10/04 06:48:33;;;;;;;0.40;0.40;;;;;;;11.89;80.20;100613.50;5064417;28;20076;-66
2022/10/04 06:51:13;;;;;;;0.40;0.40;;;;;;;11.79;80.07;100614.47;5064219;28;20099;-67
2022/10/04 06:54:17;;;;;;;0.40;0.40;;;;;;;11.59;80.14;100615.53;5064088;28;20053;-66
2022/10/04 06:56:57;;;;;;;1.58;1.52;;;;;;;11.43;80.39;100614.81;5063843;28;20100;-66
2022/10/04 06:59:54;;;;;;;0.40;0.40;;;;;;;11.33;80.36;100616.63;5064239;28;20036;-66
2022/10/04 07:02:23;;;;;;;0.98;0.98;;;;;;;11.26;80.88;100614.97;5064426;28;20021;-66
2022/10/04 07:04:50;;;;;;;0.40;0.40;;;;;;;11.23;80.81;100605.44;5064070;28;20025;-67
2022/10/04 07:07:34;;;;;;;0.40;0.40;;;;;;;11.17;80.93;100604.63;5064225;28;20047;-67
2022/10/04 07:10:19;;;;;;;0.40;0.40;;;;;;;11.15;80.89;100605.50;5064309;28;20056;-68
2022/10/04 07:13:05;;;;;;;0.40;0.40;;;;;;;11.18;81.18;100606.34;5064236;28;20040;-67
2022/10/04 07:15:41;;;;;;;4.00;3.63;;;;;;;11.23;81.28;100612.38;5064265;28;20028;-68
2022/10/04 07:18:12;;;;;;;0.40;0.40;;;;;;;11.33;81.50;100608.81;5064253;28;20047;-68
2022/10/04 07:20:38;;;;;;;0.30;0.30;;;;;;;11.42;81.27;100601.84;5064030;28;20029;-68
2022/10/04 07:23:15;;;;;;;0.40;0.40;;;;;;;11.49;81.58;100613.88;5063820;28;20064;-68
2022/10/04 07:25:50;;;;;;;0.50;0.50;;;;;;;11.49;81.90;100616.50;5064208;28;20021;-68
2022/10/04 07:31:21;;;;;;;0.40;0.40;;;;;;;11.59;82.50;100628.53;5064050;28;20036;-67
2022/10/04 07:34:01;;;;;;;0.40;0.40;;;;;;;11.62;82.83;100618.13;5063957;28;20021;-68
2022/10/04 07:37:05;;;;;;;0.40;0.40;;;;;;;11.73;83.30;100617.13;5062729;28;20382;-68
2022/10/04 07:39:53;;;;;;;0.40;0.40;;;;;;;11.84;83.45;100630.91;5045547;28;20037;-67
2022/10/04 07:42:51;;;;;;;0.43;0.43;;;;;;;11.91;84.37;100626.50;5063856;28;20503;-67
2022/10/04 07:45:31;;;;;;;0.40;0.40;;;;;;;12.05;84.41;100622.88;5056051;28;20049;-67
2022/10/04 07:48:12;;;;;;;0.40;0.40;;;;;;;12.24;85.05;100631.38;5063878;28;20040;-66
2022/10/04 07:50:49;;;;;;;0.40;0.40;;;;;;;12.38;84.73;100619.03;5063872;28;20066;-67
2022/10/04 07:53:27;;;;;;;0.40;0.40;;;;;;;12.51;84.79;100631.91;5063597;28;20029;-66
2022/10/04 07:56:18;;;;;;;0.40;0.40;;;;;;;12.61;84.79;100630.91;5063938;28;20029;-67
2022/10/04 07:59:21;;;;;;;0.50;0.50;;;;;;;12.72;84.46;100635.09;5062518;28;20040;-66
2022/10/04 08:02:06;;;;;;;0.45;0.45;;;;;;;12.71;84.63;100628.19;5062574;28;20021;-66
2022/10/04 08:04:44;;;;;;;0.93;0.93;;;;;;;12.82;84.27;100639.31;5063647;28;20056;-67
2022/10/04 08:07:32;;;;;;;0.40;0.40;;;;;;;12.80;84.10;100635.00;5065298;28;20075;-66
2022/10/04 08:10:34;;;;;;;0.93;0.93;;;;;;;12.83;84.20;100637.56;5035802;28;20040;-67
2022/10/04 08:13:05;;;;;;;0.50;0.50;;;;;;;12.80;84.05;100632.38;5005236;28;20044;-66
2022/10/04 08:15:43;;;;;;;0.40;0.40;;;;;;;12.78;84.21;100632.41;5005521;28;20061;-67
2022/10/04 08:18:33;;;;;;;0.40;0.40;;;;;;;12.77;84.23;100633.31;5005379;28;20026;-66
2022/10/04 08:21:04;;;;;;;0.40;0.40;;;;;;;12.81;84.11;100636.75;5005194;28;20054;-66
2022/10/04 08:23:48;;;;;;;0.50;0.50;;;;;;;12.83;84.38;100640.16;5004965;28;20030;-66
2022/10/04 08:26:51;;;;;;;0.40;0.40;;;;;;;12.82;84.39;100646.28;5005255;28;20041;-66
2022/10/04 08:29:41;;;;;;;0.30;0.30;;;;;;;12.80;84.30;100651.50;4988838;28;20457;-65
2022/10/04 08:32:28;;;;;;;0.60;0.60;;;;;;;12.76;84.09;100648.06;5005276;28;20081;-65
2022/10/04 08:35:33;;;;;;;0.45;0.45;;;;;;;12.70;84.07;100644.72;5004852;28;20494;-65
2022/10/04 08:38:04;;;;;;;0.40;0.40;;;;;;;12.61;84.34;100649.16;5004779;28;20027;-65
2022/10/04 08:40:48;;;;;;;0.70;0.70;;;;;;;12.57;84.71;100647.44;5004826;28;20081;-65
2022/10/04 08:43:26;;;;;;;0.40;0.40;;;;;;;12.54;85.11;100647.50;5004695;28;20034;-65
2022/10/04 08:45:55;;;;;;;0.40;0.40;;;;;;;12.54;85.01;100642.28;5006943;28;20026;-65
2022/10/04 08:48:59;;;;;;;0.38;0.38;;;;;;;12.50;85.48;100649.28;5067253;28;20025;-66
2022/10/04 08:51:53;;;;;;;0.40;0.40;;;;;;;12.54;85.61;100644.88;5066876;28;20032;-65
2022/10/04 08:54:36;;;;;;;0.30;0.30;;;;;;;12.61;85.45;100638.72;5064893;28;20025;-65
2022/10/04 08:57:05;;;;;;;0.40;0.40;;;;;;;12.69;85.51;100636.03;5066576;28;20029;-66
2022/10/04 09:00:14;;;;;;;0.40;0.40;;;;;;;12.73;85.39;100636.84;5066402;28;20052;-66
2022/10/04 09:03:01;;;;;;;0.40;0.40;;;;;;;12.74;85.46;100643.78;5004202;28;20027;-66
2022/10/04 09:05:35;;;;;;;0.40;0.40;;;;;;;12.81;85.05;100636.75;5004648;28;20030;-66
2022/10/04 09:08:25;;;;;;;0.40;0.40;;;;;;;12.82;85.35;100638.44;5004258;28;20098;-67
2022/10/04 09:11:16;;;;;;;0.30;0.30;;;;;;;12.87;85.17;100640.13;5004666;28;20062;-66
2022/10/04 09:14:05;;;;;;;0.40;0.40;;;;;;;13.05;84.95;100630.28;5004016;28;20042;-66
2022/10/04 09:16:49;;;;;;;0.40;0.40;;;;;;;13.11;84.51;100630.22;5004376;28;20030;-66
2022/10/04 09:19:46;;;;;;;1.05;1.05;;;;;;;13.22;84.11;100626.56;5003601;28;20061;-66
2022/10/04 09:22:32;;;;;;;0.40;0.40;;;;;;;13.33;84.03;100627.25;5003689;28;20141;-66
2022/10/04 09:25:03;;;;;;;0.40;0.40;;;;;;;13.49;83.99;100622.66;5003942;28;20023;-65
2022/10/04 09:27:47;;;;;;;0.40;0.40;;;;;;;13.56;83.39;100619.97;5004195;28;20043;-66
2022/10/04 09:30:32;;;;;;;0.98;0.98;;;;;;;13.60;83.14;100622.50;5003810;28;20042;-65
2022/10/04 09:33:15;;;;;;;0.55;0.55;;;;;;;13.69;82.61;100626.69;5003737;28;20383;-66
2022/10/04 09:36:05;;;;;;;1.95;1.85;;;;;;;13.69;82.57;100625.84;5003990;28;20404;-65
2022/10/04 09:38:58;;;;;;;0.40;0.40;;;;;;;13.72;82.00;100617.94;5005325;28;20037;-65
2022/10/04 09:42:02;;;;;;;0.30;0.30;;;;;;;13.66;81.69;100623.28;5065752;28;20278;-66
2022/10/04 09:44:46;;;;;;;0.40;0.40;;;;;;;13.62;81.58;100628.56;5065513;28;20071;-67
2022/10/04 09:47:30;;;;;;;0.40;0.40;;;;;;;13.60;81.79;100629.44;5065591;28;20051;-67
2022/10/04 09:50:16;;;;;;;0.35;0.35;;;;;;;13.60;81.86;100630.31;5064278;28;20031;-67
2022/10/04 09:53:06;;;;;;;0.40;0.40;;;;;;;13.59;81.58;100630.34;5065192;28;20013;-66
2022/10/04 09:55:39;;;;;;;0.40;0.40;;;;;;;13.61;81.51;100631.19;5065292;28;20039;-65
2022/10/04 09:58:42;;;;;;;0.57;0.57;;;;;;;13.56;81.65;100630.41;5063983;28;20021;-66
2022/10/04 10:01:30;;;;;;;0.63;0.63;;;;;;;13.51;81.58;100633.94;5040901;28;20033;-66
2022/10/04 10:04:30;;;;;;;0.30;0.30;;;;;;;13.50;82.06;100633.94;5064594;28;20404;-66
2022/10/04 10:07:17;;;;;;;0.40;0.40;;;;;;;13.54;81.92;100625.22;5064989;28;20055;-67
2022/10/04 10:13:38;;;;;;;0.40;0.40;;;;;;;13.55;81.91;100616.50;5003098;28;20036;-66
2022/10/04 10:16:09;;;;;;;1.25;1.25;;;;;;;13.52;82.27;100619.16;4986958;28;20037;-66
2022/10/04 10:19:03;;;;;;;9.43;2.20;;;;;;;13.56;82.69;100618.19;5003290;28;20040;-66
2022/10/04 10:21:40;;;;;;;0.35;0.35;;;;;;;13.63;82.49;100613.75;5002694;28;20038;-66
2022/10/04 10:24:34;;;;;;;0.40;0.40;;;;;;;13.74;82.63;100621.38;5002878;28;20042;-67
2022/10/04 10:27:08;;;;;;;0.40;0.40;;;;;;;13.78;82.53;100620.44;4986772;28;20022;-66
2022/10/04 10:29:43;;;;;;;0.40;0.40;;;;;;;13.88;82.31;100613.31;5002473;28;20452;-66
2022/10/04 10:32:20;;;;;;;0.30;0.30;;;;;;;13.93;81.84;100623.66;5002609;28;20089;-65
2022/10/04 10:34:45;;;;;;;0.40;0.40;;;;;;;13.95;81.60;100622.72;5002891;28;20030;-66
2022/10/04 10:37:32;;;;;;;0.38;0.38;;;;;;;13.95;81.81;100617.50;5002770;28;20030;-66
2022/10/04 10:40:33;;;;;;;0.40;0.40;;;;;;;13.92;81.83;100616.69;5003006;28;20034;-66
2022/10/04 10:43:14;;;;;;;0.40;0.40;;;;;;;13.94;82.06;100612.31;5002663;28;20031;-66
2022/10/04 10:46:17;;;;;;;0.40;0.40;;;;;;;13.92;81.64;100614.09;5003195;28;20113;-66
2022/10/04 10:49:16;;;;;;;0.30;0.30;;;;;;;13.90;81.58;100621.94;5005991;28;20073;-66
2022/10/04 10:52:10;;;;;;;0.30;0.30;;;;;;;13.92;81.69;100616.69;5064437;28;20084;-66
2022/10/04 10:54:38;;;;;;;0.40;0.40;;;;;;;13.97;81.63;100622.69;5064629;28;20025;-64
2022/10/04 10:57:10;;;;;;;0.75;0.75;;;;;;;14.02;81.61;100620.88;5063308;28;20028;-65
2022/10/04 10:59:38;;;;;;;3.15;2.92;;;;;;;14.09;81.55;100614.63;5064486;28;20025;-65
2022/10/04 11:02:35;;;;;;;0.40;0.40;;;;;;;14.15;81.10;100611.06;5064443;28;20050;-65
2022/10/04 11:05:37;;;;;;;0.40;0.40;;;;;;;14.18;80.82;100610.13;5064324;28;20017;-65
2022/10/04 11:08:28;;;;;;;0.40;0.40;;;;;;;14.16;80.46;100617.13;5064158;28;20029;-64
2022/10/04 11:10:58;;;;;;;0.30;0.30;;;;;;;14.17;80.16;100603.19;5064383;28;20480;-66
2022/10/04 11:14:18;;;;;;;0.30;0.30;;;;;;;14.19;80.83;100596.16;5064254;28;20032;-65
2022/10/04 11:17:13;;;;;;;0.30;0.30;;;;;;;14.23;80.41;100592.63;5002496;28;20084;-65
2022/10/04 11:20:28;;;;;;;0.30;0.30;;;;;;;14.27;80.76;100594.25;5002455;28;20031;-64
2022/10/04 11:23:03;;;;;;;0.40;0.40;;;;;;;14.36;79.97;100586.22;5002087;28;20149;-66
2022/10/04 11:25:46;;;;;;;0.30;0.30;;;;;;;14.30;79.50;100578.53;5002493;28;20282;-64
2022/10/04 11:28:15;;;;;;;0.82;0.82;;;;;;;14.29;79.95;100571.59;5002409;28;20082;-65
2022/10/04 11:31:18;;;;;;;0.30;0.30;;;;;;;14.35;79.88;100570.59;5003010;28;20054;-65
2022/10/04 11:34:17;;;;;;;1.20;1.20;;;;;;;14.44;79.55;100580.00;5002802;28;20077;-65
2022/10/04 11:37:07;;;;;;;0.40;0.40;;;;;;;14.42;78.81;100582.63;5002340;28;20030;-65
2022/10/04 11:39:44;;;;;;;0.30;0.30;;;;;;;14.41;78.72;100578.28;5002218;28;20145;-65
2022/10/04 11:42:48;;;;;;;0.30;0.30;;;;;;;14.35;78.95;100566.25;5004170;28;20076;-65
2022/10/04 11:45:37;;;;;;;0.40;0.40;;;;;;;14.32;79.18;100563.69;5006033;28;20049;-65
2022/10/04 11:48:26;;;;;;;0.40;0.40;;;;;;;14.39;79.24;100561.81;5006217;28;20030;-65
2022/10/04 11:51:11;;;;;;;0.80;0.77;;;;;;;14.42;79.13;100566.97;5039594;28;20432;-65
2022/10/04 11:54:23;;;;;;;0.30;0.30;;;;;;;14.40;79.25;100566.13;5067437;28;20035;-65
2022/10/04 11:57:07;;;;;;;0.40;0.40;;;;;;;14.48;79.25;100563.34;5067954;28;20032;-64
2022/10/04 11:59:56;;;;;;;0.40;0.40;;;;;;;14.51;79.15;100560.66;5067613;28;20033;-65
2022/10/04 12:02:45;;;;;;;0.30;0.30;;;;;;;14.60;79.24;100557.84;5067237;28;20108;-65
2022/10/04 12:05:52;;;;;;;0.40;0.40;;;;;;;14.70;78.57;100555.00;5067830;28;20045;-64
2022/10/04 12:09:07;;;;;;;0.30;0.30;;;;;;;14.73;78.51;100549.72;5066840;28;20111;-65
2022/10/04 12:14:46;;;;;;;0.50;0.50;;;;;;;14.61;77.99;100545.66;5005335;28;20065;-64
2022/10/04 12:17:51;;;;;;;0.35;0.35;;;;;;;14.62;78.54;100548.22;5005612;28;20050;-64
2022/10/04 12:20:40;;;;;;;0.38;0.38;;;;;;;14.53;78.04;100553.66;4966309;29;20045;-67
2022/10/04 12:23:18;;;;;;;0.45;0.45;;;;;;;14.43;78.43;100546.91;4966349;29;20036;-64
2022/10/04 12:25:54;;;;;;;0.30;0.30;;;;;;;14.32;78.72;100541.94;4966297;29;20492;-65
2022/10/04 12:28:51;;;;;;;0.38;0.38;;;;;;;14.27;78.50;100539.41;4966471;29;20167;-65
2022/10/04 12:31:25;;;;;;;0.40;0.40;;;;;;;14.26;79.51;100542.94;4966264;29;20043;-64
2022/10/04 12:33:58;;;;;;;0.30;0.30;;;;;;;14.34;79.47;100540.16;4966391;29;20031;-65
2022/10/04 12:36:50;;;;;;;0.30;0.30;;;;;;;14.40;79.26;100532.19;4966278;29;20099;-65